Time;durP1;ratioP1;P1;durP2;ratioP2;P2;SDS_P1;SDS_P2;PMS_P1;PMS_P2;Temp;Humidity;BMP_temperature;BMP_pressure;BME280_temperature;BME280_humidity;BME280_pressure;Samples;Min_cycle;Max_cycle;Signal;HPM_P1;HPM_P2
2022/04/26 03:36:09;;;;;;;68.97;33.10;;;8.10;99.90;;;;;;5011598;28;20209;-60
2022/04/26 03:38:35;;;;;;;71.73;35.47;;;8.00;99.90;;;;;;5012424;28;20242;-60
2022/04/26 03:41:02;;;;;;;68.90;32.43;;;8.00;99.90;;;;;;5011957;28;20235;-61
2022/04/26 03:43:30;;;;;;;81.17;37.10;;;8.00;99.90;;;;;;5011880;28;20627;-60
2022/04/26 03:45:57;;;;;;;84.60;38.13;;;7.90;99.90;;;;;;5011679;28;20233;-61
2022/04/26 03:48:26;;;;;;;81.03;36.47;;;7.90;99.90;;;;;;5011798;28;20700;-60
2022/04/26 03:50:52;;;;;;;88.67;36.83;;;8.00;99.90;;;;;;5011865;28;20284;-61
2022/04/26 03:53:19;;;;;;;89.33;37.80;;;8.00;99.90;;;;;;5011816;28;20227;-60
2022/04/26 03:55:46;;;;;;;81.20;35.03;;;8.00;99.90;;;;;;5011981;28;20211;-60
2022/04/26 03:58:13;;;;;;;87.67;36.80;;;7.90;99.90;;;;;;5012011;28;20261;-60
2022/04/26 04:00:39;;;;;;;93.13;36.87;;;7.90;99.90;;;;;;5011950;28;20742;-60
2022/04/26 04:03:06;;;;;;;89.97;36.87;;;7.80;99.90;;;;;;5011854;28;20629;-60
2022/04/26 04:05:34;;;;;;;80.53;37.37;;;7.80;99.90;;;;;;5011602;28;20210;-60
2022/04/26 04:08:01;;;;;;;85.57;36.17;;;7.80;99.90;;;;;;5011423;28;20754;-60
2022/04/26 04:10:28;;;;;;;80.23;34.67;;;7.80;99.90;;;;;;5011386;28;20640;-59
2022/04/26 04:12:54;;;;;;;71.73;30.30;;;7.70;99.90;;;;;;5011728;28;20227;-60
2022/04/26 04:15:21;;;;;;;92.13;38.40;;;7.70;99.90;;;;;;5011398;28;20210;-58
2022/04/26 04:17:48;;;;;;;85.67;35.50;;;7.70;99.90;;;;;;5011475;28;20210;-59
2022/04/26 04:20:15;;;;;;;86.87;34.00;;;7.80;99.90;;;;;;5011711;28;20235;-60
2022/04/26 04:22:43;;;;;;;89.40;36.13;;;7.60;99.90;;;;;;5011570;28;20203;-60
2022/04/26 04:25:10;;;;;;;83.73;33.33;;;7.70;99.90;;;;;;5014311;28;20632;-61
2022/04/26 04:27:37;;;;;;;48.87;25.37;;;7.70;99.90;;;;;;5015036;28;20207;-59
2022/04/26 04:30:04;;;;;;;44.57;21.87;;;7.70;99.90;;;;;;5014954;28;20227;-57
2022/04/26 04:32:31;;;;;;;36.00;19.13;;;7.60;99.90;;;;;;5015137;28;20276;-60
2022/04/26 04:34:58;;;;;;;33.37;19.33;;;7.40;99.90;;;;;;5015200;28;20342;-59
2022/04/26 04:37:24;;;;;;;33.33;18.53;;;7.30;99.90;;;;;;5014859;28;20272;-58
2022/04/26 04:39:53;;;;;;;32.27;18.17;;;7.30;99.90;;;;;;5014993;28;20281;-60
2022/04/26 04:42:21;;;;;;;36.63;17.90;;;7.20;99.90;;;;;;5015085;28;20203;-58
2022/04/26 04:44:48;;;;;;;29.33;17.50;;;7.20;99.90;;;;;;5014673;28;20212;-63
2022/04/26 04:47:15;;;;;;;31.30;18.70;;;7.20;99.90;;;;;;5013451;28;20213;-57
2022/04/26 04:49:41;;;;;;;30.93;17.43;;;7.10;99.90;;;;;;5014109;28;20242;-60
2022/04/26 04:52:08;;;;;;;34.67;18.40;;;7.10;99.90;;;;;;5014868;28;20205;-60
2022/04/26 04:54:35;;;;;;;29.57;17.07;;;7.10;99.90;;;;;;5014705;28;20264;-60
2022/04/26 04:57:06;;;;;;;33.97;18.23;;;7.10;99.90;;;;;;5013856;28;20251;-59
2022/04/26 04:59:32;;;;;;;31.27;16.73;;;7.10;99.90;;;;;;5014848;28;20249;-60
2022/04/26 05:01:59;;;;;;;31.70;17.13;;;7.10;99.90;;;;;;5014483;28;20240;-58
2022/04/26 05:04:25;;;;;;;30.77;15.47;;;7.10;99.90;;;;;;5014775;28;20205;-56
2022/04/26 05:06:52;;;;;;;27.37;14.87;;;7.20;99.90;;;;;;5013909;28;20265;-58
2022/04/26 05:09:19;;;;;;;24.27;14.63;;;7.20;99.90;;;;;;5014316;28;20230;-58
2022/04/26 05:11:45;;;;;;;24.73;14.60;;;7.10;99.90;;;;;;5014138;28;20276;-60
2022/04/26 05:14:13;;;;;;;26.67;13.23;;;6.90;99.90;;;;;;5014244;28;20233;-58
2022/04/26 05:16:40;;;;;;;24.37;13.70;;;7.00;99.90;;;;;;5014139;28;20206;-56
2022/04/26 05:19:07;;;;;;;22.57;13.63;;;6.80;99.90;;;;;;5013845;28;20287;-59
2022/04/26 05:21:34;;;;;;;25.87;13.00;;;6.90;99.90;;;;;;5014305;28;20269;-60
2022/04/26 05:26:57;;;;;;;24.30;13.00;;;6.80;99.90;;;;;;4956245;28;20204;-60
2022/04/26 05:29:25;;;;;;;20.23;12.97;;;6.90;99.90;;;;;;5003843;28;20582;-60
2022/04/26 05:31:51;;;;;;;23.33;13.23;;;6.80;99.90;;;;;;5013615;28;20213;-60
2022/04/26 05:34:18;;;;;;;18.87;12.97;;;6.90;99.90;;;;;;5013466;28;20265;-60
2022/04/26 05:36:48;;;;;;;20.10;11.30;;;6.90;99.90;;;;;;5013036;28;20207;-60
2022/04/26 05:39:15;;;;;;;23.20;11.70;;;6.90;99.90;;;;;;5008920;28;20598;-63
2022/04/26 05:41:42;;;;;;;13.90;8.00;;;6.80;99.90;;;;;;5009488;28;20220;-59
2022/04/26 05:44:08;;;;;;;19.80;10.83;;;6.70;99.90;;;;;;5013133;28;20679;-59
2022/04/26 05:46:36;;;;;;;21.07;12.13;;;6.60;99.90;;;;;;5013068;28;20683;-59
2022/04/26 05:49:03;;;;;;;19.33;10.93;;;6.70;99.90;;;;;;5012906;28;20242;-60
2022/04/26 05:51:30;;;;;;;17.30;11.17;;;6.70;99.90;;;;;;5012973;28;20748;-60
2022/04/26 05:53:57;;;;;;;15.63;11.20;;;6.70;99.90;;;;;;5013320;28;20768;-62
2022/04/26 05:56:23;;;;;;;19.50;11.97;;;6.80;99.90;;;;;;5012841;28;20579;-60
2022/04/26 05:58:50;;;;;;;24.43;12.63;;;6.80;99.90;;;;;;5012817;28;20231;-61
2022/04/26 06:01:17;;;;;;;19.87;11.17;;;6.90;99.90;;;;;;5012656;28;20811;-59
2022/04/26 06:03:45;;;;;;;18.90;12.30;;;6.90;99.90;;;;;;5012743;28;20260;-59
2022/04/26 06:06:12;;;;;;;16.90;11.03;;;7.00;99.90;;;;;;5012673;28;20219;-62
2022/04/26 06:08:39;;;;;;;23.47;12.63;;;6.90;99.90;;;;;;5012538;28;20235;-60
2022/04/26 06:11:06;;;;;;;22.90;13.07;;;6.90;99.90;;;;;;5012695;28;20590;-59
2022/04/26 06:13:33;;;;;;;19.53;11.57;;;6.90;99.90;;;;;;5012481;28;20229;-62
2022/04/26 06:16:00;;;;;;;21.97;12.83;;;6.90;99.90;;;;;;5012392;28;20217;-60
2022/04/26 06:18:26;;;;;;;23.67;12.97;;;6.90;99.90;;;;;;5011576;28;20210;-61
2022/04/26 06:20:54;;;;;;;19.70;12.00;;;6.90;99.90;;;;;;5012453;28;20568;-59
2022/04/26 06:23:21;;;;;;;22.70;11.33;;;6.90;99.90;;;;;;5011665;28;20227;-64
2022/04/26 06:25:48;;;;;;;21.33;12.10;;;6.80;99.90;;;;;;5012389;28;20214;-64
2022/04/26 06:28:15;;;;;;;18.90;11.93;;;6.90;99.90;;;;;;5012019;28;20214;-61
2022/04/26 06:30:42;;;;;;;20.87;12.57;;;6.90;99.90;;;;;;5011903;28;20647;-62
2022/04/26 06:33:09;;;;;;;20.13;12.20;;;7.00;99.90;;;;;;5011630;28;20288;-64
2022/04/26 06:35:35;;;;;;;20.50;13.20;;;7.20;99.90;;;;;;5012836;28;20215;-60
2022/04/26 06:38:03;;;;;;;19.83;13.00;;;7.20;99.90;;;;;;5011796;28;20214;-56
2022/04/26 06:40:30;;;;;;;19.07;12.00;;;7.40;99.90;;;;;;5023424;28;20768;-64
2022/04/26 06:42:58;;;;;;;23.20;13.17;;;7.40;99.90;;;;;;5031317;28;20293;-62
2022/04/26 06:45:24;;;;;;;24.73;13.47;;;7.30;99.90;;;;;;5033500;28;20209;-60
2022/04/26 06:47:54;;;;;;;28.43;15.07;;;7.20;99.90;;;;;;5033376;28;20228;-61
2022/04/26 06:50:20;;;;;;;23.47;13.00;;;7.30;99.90;;;;;;5032982;28;20234;-61
2022/04/26 06:52:47;;;;;;;25.83;15.40;;;7.20;99.90;;;;;;5031454;28;20229;-60
2022/04/26 06:55:15;;;;;;;29.50;15.40;;;7.20;99.90;;;;;;5030806;28;20210;-59
2022/04/26 06:57:42;;;;;;;31.57;18.37;;;7.20;99.90;;;;;;5031353;28;20271;-60
2022/04/26 07:00:10;;;;;;;31.37;18.27;;;7.30;99.90;;;;;;5031062;28;20229;-61
2022/04/26 07:02:36;;;;;;;27.50;16.70;;;7.40;99.90;;;;;;5031165;28;20210;-59
2022/04/26 07:05:03;;;;;;;34.60;18.10;;;7.40;99.90;;;;;;5031819;28;20264;-61
2022/04/26 07:07:30;;;;;;;31.47;15.97;;;7.50;99.90;;;;;;5030844;28;20214;-60
2022/04/26 07:09:57;;;;;;;49.27;21.47;;;7.40;99.90;;;;;;5031542;28;20234;-59
2022/04/26 07:12:25;;;;;;;50.70;21.00;;;7.50;99.90;;;;;;5030984;28;20202;-62
2022/04/26 07:14:51;;;;;;;57.40;25.10;;;7.50;99.90;;;;;;5031337;28;20234;-59
2022/04/26 07:17:18;;;;;;;54.53;26.00;;;7.40;99.90;;;;;;5031332;28;20272;-60
2022/04/26 07:19:45;;;;;;;57.87;25.37;;;7.50;99.90;;;;;;5031015;28;20245;-59
2022/04/26 07:22:11;;;;;;;44.47;22.07;;;7.50;99.90;;;;;;5031120;28;20216;-59
2022/04/26 07:24:38;;;;;;;57.83;25.77;;;7.50;99.90;;;;;;5030597;28;20276;-59
2022/04/26 07:27:05;;;;;;;63.80;28.23;;;7.50;99.90;;;;;;5030761;28;20569;-59
2022/04/26 07:29:33;;;;;;;53.47;25.47;;;7.70;99.90;;;;;;5031194;28;20580;-60
2022/04/26 07:32:00;;;;;;;55.73;24.97;;;7.80;99.90;;;;;;5030813;28;20213;-59
2022/04/26 07:34:26;;;;;;;50.10;23.30;;;7.90;99.90;;;;;;5031258;28;20226;-59
2022/04/26 07:36:59;;;;;;;52.30;26.53;;;8.10;99.90;;;;;;5031077;28;20198;-59
2022/04/26 07:39:26;;;;;;;47.13;23.23;;;8.10;99.90;;;;;;5016586;28;20226;-58
2022/04/26 07:41:52;;;;;;;38.77;20.77;;;8.30;99.90;;;;;;5010374;28;20219;-60
2022/04/26 07:44:21;;;;;;;39.30;21.30;;;8.50;99.90;;;;;;5011058;28;20210;-61
2022/04/26 07:46:51;;;;;;;42.10;20.57;;;8.70;99.90;;;;;;5011319;28;20207;-62
2022/04/26 07:49:20;;;;;;;37.03;20.37;;;8.70;99.90;;;;;;5010954;28;20709;-61
2022/04/26 07:51:48;;;;;;;33.50;19.43;;;8.70;99.90;;;;;;5010963;28;20218;-60
2022/04/26 07:54:16;;;;;;;33.83;19.90;;;8.90;99.90;;;;;;5010554;28;20276;-61
2022/04/26 07:56:43;;;;;;;34.53;18.63;;;9.10;99.90;;;;;;5010934;28;20215;-62
2022/04/26 07:59:10;;;;;;;32.67;18.27;;;9.20;99.90;;;;;;5014154;28;20231;-61
2022/04/26 08:01:37;;;;;;;32.27;19.40;;;9.20;99.90;;;;;;5014707;28;20219;-61
2022/04/26 08:04:05;;;;;;;30.43;19.33;;;9.00;99.90;;;;;;5015055;28;20207;-64
2022/04/26 08:06:32;;;;;;;31.13;18.17;;;9.20;99.90;;;;;;5014830;28;20230;-64
2022/04/26 08:08:59;;;;;;;26.00;17.87;;;9.30;99.90;;;;;;5015058;28;20236;-63
2022/04/26 08:11:28;;;;;;;32.67;19.23;;;9.20;99.90;;;;;;5015017;28;20293;-64
2022/04/26 08:13:56;;;;;;;29.33;19.07;;;9.10;99.90;;;;;;5014615;28;20230;-64
2022/04/26 08:16:22;;;;;;;30.27;19.40;;;9.10;99.90;;;;;;5014938;28;20641;-61
2022/04/26 08:18:49;;;;;;;30.70;18.90;;;9.10;99.90;;;;;;5014698;28;20232;-62
2022/04/26 08:21:17;;;;;;;37.83;20.93;;;9.10;99.90;;;;;;5014028;28;20253;-61
2022/04/26 08:29:18;;;;;;;30.47;19.17;;;9.30;99.90;;;;;;5003951;28;20230;-63
2022/04/26 08:31:46;;;;;;;27.23;16.93;;;9.40;99.90;;;;;;5013761;28;20675;-65
2022/04/26 08:34:12;;;;;;;32.27;19.57;;;9.30;99.90;;;;;;5014368;28;20649;-62
2022/04/26 08:36:41;;;;;;;30.40;20.37;;;9.30;99.90;;;;;;5014485;28;20218;-61
2022/04/26 08:39:08;;;;;;;32.80;20.73;;;9.50;99.90;;;;;;5014235;28;20230;-61
2022/04/26 08:41:35;;;;;;;34.93;20.97;;;9.70;99.90;;;;;;5014270;28;20278;-60
2022/04/26 08:44:02;;;;;;;31.30;21.70;;;9.80;99.90;;;;;;5013563;28;20205;-60
2022/04/26 08:50:59;;;;;;;35.93;21.60;;;9.90;99.90;;;;;;5013809;28;20283;-55
2022/04/26 08:52:03;;;;;;;31.47;19.73;;;10.00;99.90;;;;;;5014156;28;20724;-61
2022/04/26 08:54:31;;;;;;;28.43;20.13;;;9.80;99.90;;;;;;5014103;28;20253;-58
2022/04/26 08:56:58;;;;;;;37.73;19.80;;;9.90;99.90;;;;;;5013674;28;20299;-59
2022/04/26 08:59:25;;;;;;;28.23;20.23;;;9.90;99.90;;;;;;5013999;28;20229;-59
2022/04/26 09:01:52;;;;;;;26.47;17.67;;;10.00;99.90;;;;;;5013439;28;20208;-62
2022/04/26 09:04:19;;;;;;;26.90;18.97;;;10.00;99.90;;;;;;5014197;28;20263;-63
2022/04/26 09:06:46;;;;;;;29.63;19.27;;;10.00;99.90;;;;;;5013680;28;20742;-62
2022/04/26 09:09:17;;;;;;;28.53;18.70;;;10.10;99.90;;;;;;5013305;28;20324;-60
2022/04/26 09:11:45;;;;;;;26.70;18.50;;;10.20;99.90;;;;;;5013667;28;20211;-60
2022/04/26 09:14:30;;;;;;;25.70;17.90;;;10.30;99.90;;;;;;5013708;28;20226;-61
2022/04/26 09:17:04;;;;;;;29.13;18.73;;;10.10;99.90;;;;;;5013716;28;20213;-63
2022/04/26 09:19:44;;;;;;;29.47;18.97;;;10.20;99.90;;;;;;5013359;28;20642;-60
2022/04/26 09:22:17;;;;;;;25.43;17.63;;;10.30;99.90;;;;;;5013206;28;20312;-61
2022/04/26 09:24:59;;;;;;;29.93;18.80;;;10.40;99.90;;;;;;5013801;28;20225;-62
2022/04/26 09:27:27;;;;;;;24.37;16.33;;;10.60;99.90;;;;;;5013472;28;20209;-62
2022/04/26 09:29:54;;;;;;;27.83;18.33;;;10.80;99.90;;;;;;5013533;28;20798;-63
2022/04/26 09:32:20;;;;;;;26.60;17.77;;;10.90;99.90;;;;;;5012534;28;20218;-65
2022/04/26 09:34:47;;;;;;;25.30;16.93;;;10.90;99.90;;;;;;5013739;28;20237;-65
2022/04/26 09:37:14;;;;;;;24.20;16.97;;;10.90;99.90;;;;;;5012957;28;20252;-63
2022/04/26 09:39:41;;;;;;;26.50;17.17;;;11.10;99.90;;;;;;5013211;28;20325;-63
2022/04/26 09:42:10;;;;;;;25.67;16.83;;;11.20;98.60;;;;;;5012817;28;20298;-64
2022/04/26 09:44:40;;;;;;;23.93;16.53;;;11.30;93.60;;;;;;5012917;28;20206;-60
2022/04/26 09:47:07;;;;;;;22.27;15.63;;;11.30;94.90;;;;;;5013366;28;20269;-61
2022/04/26 09:49:37;;;;;;;22.73;16.47;;;11.30;90.40;;;;;;5012936;28;20243;-60
2022/04/26 09:52:08;;;;;;;26.20;17.00;;;11.40;90.10;;;;;;5012968;28;20298;-58
2022/04/26 09:54:37;;;;;;;21.40;15.17;;;11.50;91.00;;;;;;5012986;28;20320;-58
2022/04/26 09:57:07;;;;;;;21.07;14.90;;;11.70;71.50;;;;;;5012503;28;20207;-59
2022/04/26 09:59:39;;;;;;;22.97;14.43;;;12.00;83.70;;;;;;5013193;28;20270;-60
2022/04/26 10:02:08;;;;;;;24.43;16.17;;;11.90;43.20;;;;;;5012395;28;20211;-58
2022/04/26 10:04:39;;;;;;;22.03;14.70;;;12.00;58.80;;;;;;5012649;28;20693;-57
2022/04/26 10:07:13;;;;;;;23.33;14.37;;;12.20;60.20;;;;;;5012491;28;20207;-59
2022/04/26 10:09:41;;;;;;;21.43;14.47;;;12.40;21.40;;;;;;5037903;23;20234;-63
2022/04/26 10:12:09;;;;;;;20.30;15.67;;;12.40;11.80;;;;;;5032399;28;20241;-65
2022/04/26 10:14:37;;;;;;;22.47;14.40;;;12.30;38.80;;;;;;5032065;28;20230;-61
2022/04/26 10:17:05;;;;;;;18.90;13.90;;;12.40;22.00;;;;;;5032424;28;20671;-61
2022/04/26 10:19:43;;;;;;;20.93;15.33;;;12.50;1.00;;;;;;5032051;28;20226;-61
2022/04/26 10:22:11;;;;;;;21.20;15.20;;;12.80;1.00;;;;;;5031883;28;20236;-57
2022/04/26 10:24:39;;;;;;;20.17;15.03;;;12.80;1.00;;;;;;5032255;28;20233;-59
2022/04/26 10:27:18;;;;;;;21.80;15.17;;;12.70;1.00;;;;;;5032134;28;20215;-59
2022/04/26 10:29:46;;;;;;;22.63;14.43;;;12.40;1.00;;;;;;5032411;28;20226;-60
2022/04/26 10:32:29;;;;;;;22.40;14.13;;;12.50;1.00;;;;;;5031603;28;20264;-59
2022/04/26 10:34:56;;;;;;;21.07;14.03;;;12.50;99.90;;;;;;5032141;28;20237;-57
2022/04/26 10:37:33;;;;;;;26.63;14.57;;;12.50;99.90;;;;;;5032448;28;20210;-61
2022/04/26 10:40:00;;;;;;;23.13;14.60;;;12.40;99.90;;;;;;5032098;28;20313;-63
2022/04/26 10:42:29;;;;;;;21.20;15.10;;;12.50;1.00;;;;;;5031041;28;20204;-62
2022/04/26 10:45:08;;;;;;;28.13;13.67;;;12.60;99.90;;;;;;5031121;28;20211;-61
2022/04/26 10:47:35;;;;;;;21.10;14.93;;;12.60;99.90;;;;;;5031581;28;20697;-62
2022/04/26 10:50:03;;;;;;;21.50;15.07;;;12.50;99.90;;;;;;5031470;28;20233;-63
2022/04/26 10:52:41;;;;;;;22.50;16.33;;;12.70;99.90;;;;;;5031541;28;20206;-64
2022/04/26 10:55:14;;;;;;;20.17;14.40;;;13.20;99.90;;;;;;5031286;28;20263;-63
2022/04/26 10:57:43;;;;;;;20.37;14.73;;;13.60;1.00;;;;;;5031343;28;20243;-63
2022/04/26 11:00:13;;;;;;;21.93;14.80;;;13.90;1.00;;;;;;5032209;28;20316;-63
2022/04/26 11:02:41;;;;;;;18.07;14.27;;;14.20;20.10;;;;;;5050711;28;20210;-63
2022/04/26 11:05:10;;;;;;;18.43;13.00;;;14.10;1.00;;;;;;5051720;28;20257;-64
2022/04/26 11:07:42;;;;;;;24.37;14.73;;;14.10;99.90;;;;;;5050712;28;20275;-64
2022/04/26 11:10:11;;;;;;;18.23;13.97;;;14.20;1.00;;;;;;5050998;28;20240;-64
2022/04/26 11:12:38;;;;;;;20.47;14.17;;;14.40;99.90;;;;;;5055810;28;20566;-65
2022/04/26 11:15:07;;;;;;;18.90;13.87;;;14.30;21.50;;;;;;5053152;28;20630;-60
2022/04/26 11:17:36;;;;;;;15.57;11.87;;;14.10;1.00;;;;;;5051490;28;20296;-61
2022/04/26 11:20:05;;;;;;;19.37;13.73;;;13.70;99.90;;;;;;5050694;28;20236;-59
2022/04/26 11:22:32;;;;;;;20.83;12.90;;;13.60;99.90;;;;;;5050763;28;20212;-58
2022/04/26 11:28:00;;;;;;;20.13;13.80;;;13.90;99.90;;;;;;5051162;28;20204;-57
2022/04/26 11:30:30;;;;;;;15.50;10.50;;;14.30;99.90;;;;;;5051143;28;20222;-60
2022/04/26 11:33:00;;;;;;;17.40;13.90;;;14.70;1.00;;;;;;5049601;28;20296;-62
2022/04/26 11:35:27;;;;;;;17.23;13.17;;;14.60;1.00;;;;;;5051138;28;20233;-61
2022/04/26 11:37:56;;;;;;;17.20;12.70;;;14.90;1.00;;;;;;5050491;28;20211;-61
2022/04/26 11:40:24;;;;;;;16.23;12.47;;;15.10;1.00;;;;;;5050805;28;20288;-63
2022/04/26 11:42:51;;;;;;;19.63;13.80;;;15.40;1.00;;;;;;5050633;28;20213;-62
2022/04/26 11:45:19;;;;;;;21.20;13.47;;;15.50;1.00;;;;;;5050481;28;20201;-62
2022/04/26 11:47:49;;;;;;;19.03;13.47;;;15.70;99.90;;;;;;5051266;28;20213;-61
2022/04/26 11:50:19;;;;;;;18.07;12.63;;;15.50;99.90;;;;;;5051033;28;20225;-62
2022/04/26 11:52:47;;;;;;;18.60;13.80;;;15.10;99.90;;;;;;5050837;28;20213;-62
2022/04/26 11:55:26;;;;;;;17.93;13.60;;;14.80;99.90;;;;;;5050522;28;20217;-62
2022/04/26 11:57:54;;;;;;;18.17;14.40;;;14.40;1.00;;;;;;5050202;28;20212;-64
2022/04/26 12:00:23;;;;;;;20.43;12.97;;;14.70;99.90;;;;;;5050993;28;20234;-61
2022/04/26 12:02:50;;;;;;;20.37;13.80;;;14.50;1.00;;;;;;5050534;28;20210;-64
2022/04/26 12:05:22;;;;;;;20.53;13.73;;;14.50;1.00;;;;;;5050153;28;20223;-63
2022/04/26 12:07:50;;;;;;;22.37;14.37;;;14.30;1.00;;;;;;5050471;28;20304;-60
2022/04/26 12:10:27;;;;;;;17.97;13.27;;;14.20;1.00;;;;;;5050613;28;20310;-61
2022/04/26 12:12:55;;;;;;;19.03;13.83;;;14.20;1.00;;;;;;5050610;28;20213;-60
2022/04/26 12:15:25;;;;;;;18.57;13.33;;;14.30;1.00;;;;;;5050607;28;20315;-60
2022/04/26 12:18:09;;;;;;;19.60;14.07;;;14.20;1.00;;;;;;5050089;28;20263;-62
2022/04/26 12:20:56;;;;;;;23.37;14.67;;;14.00;1.00;;;;;;5050319;28;20213;-59
2022/04/26 12:23:26;;;;;;;19.73;14.00;;;13.90;1.00;;;;;;5050451;28;20204;-58
2022/04/26 12:25:54;;;;;;;17.80;14.23;;;14.00;1.00;;;;;;5050593;28;20198;-60
2022/04/26 12:28:20;;;;;;;22.20;15.30;;;14.10;1.00;;;;;;5050989;28;20255;-59
2022/04/26 12:30:47;;;;;;;22.57;16.90;;;14.30;1.00;;;;;;5049818;28;20214;-56
2022/04/26 12:33:25;;;;;;;23.00;17.00;;;14.70;1.00;;;;;;5050007;28;20267;-59
2022/04/26 12:35:59;;;;;;;24.97;17.23;;;14.90;1.00;;;;;;5050633;28;20278;-60
2022/04/26 12:38:25;;;;;;;19.73;15.83;;;15.10;99.90;;;;;;5050179;28;20336;-63
2022/04/26 12:41:02;;;;;;;22.87;17.67;;;15.20;1.00;;;;;;5044604;28;20257;-64
2022/04/26 12:43:29;;;;;;;21.83;16.73;;;15.40;1.00;;;;;;5030706;28;20369;-64
2022/04/26 12:46:02;;;;;;;20.00;15.00;;;15.60;99.90;;;;;;5033735;28;20206;-63
2022/04/26 12:51:20;;;;;;;21.87;15.10;;;15.60;99.90;;;;;;5033696;28;20198;-64
2022/04/26 12:53:51;;;;;;;18.00;14.33;;;15.50;99.90;;;;;;5033816;28;20686;-64
2022/04/26 12:56:20;;;;;;;17.73;14.27;;;15.00;99.90;;;;;;5032933;28;20288;-65
2022/04/26 12:58:48;;;;;;;20.00;14.60;;;14.70;99.90;;;;;;5033617;28;20226;-62
2022/04/26 13:01:17;;;;;;;18.37;15.03;;;14.70;99.90;;;;;;5033631;28;20236;-62
2022/04/26 13:03:46;;;;;;;16.87;13.70;;;14.70;99.90;;;;;;5033433;28;20255;-62
2022/04/26 13:06:16;;;;;;;17.57;13.63;;;14.20;99.90;;;;;;5033908;28;20210;-64
2022/04/26 13:08:44;;;;;;;16.50;13.63;;;14.00;99.90;;;;;;5033805;28;20245;-65
2022/04/26 13:11:11;;;;;;;19.80;15.17;;;14.10;99.90;;;;;;5034528;28;20202;-64
2022/04/26 13:13:39;;;;;;;17.17;13.70;;;14.10;99.90;;;;;;5033461;28;20214;-61
2022/04/26 13:16:07;;;;;;;16.63;12.17;;;14.10;99.90;;;;;;5033446;28;20232;-62
2022/04/26 13:18:34;;;;;;;17.90;14.33;;;14.00;99.90;;;;;;5034201;28;20607;-63
2022/04/26 13:21:02;;;;;;;19.67;13.97;;;13.80;99.90;;;;;;5033091;28;20202;-63
2022/04/26 13:23:30;;;;;;;19.73;15.57;;;13.90;99.90;;;;;;5034115;28;20297;-60
2022/04/26 13:25:58;;;;;;;16.23;12.90;;;13.90;99.90;;;;;;5052690;28;20204;-61
2022/04/26 13:28:27;;;;;;;20.20;14.47;;;13.80;99.90;;;;;;5053716;28;20293;-61
2022/04/26 13:30:54;;;;;;;18.27;13.90;;;13.60;99.90;;;;;;5053317;28;20283;-62
2022/04/26 13:33:21;;;;;;;19.17;14.80;;;13.40;99.90;;;;;;5053080;28;20217;-63
2022/04/26 13:35:48;;;;;;;21.60;16.20;;;13.30;1.00;;;;;;5052788;28;20225;-62
2022/04/26 13:38:16;;;;;;;18.60;13.93;;;13.40;23.70;;;;;;5052796;28;20204;-62
2022/04/26 13:40:45;;;;;;;23.87;17.80;;;13.10;99.90;;;;;;5053191;28;20239;-60
2022/04/26 13:43:12;;;;;;;26.47;17.43;;;12.90;99.90;;;;;;5052419;28;20292;-55
2022/04/26 13:45:39;;;;;;;23.03;17.57;;;12.80;99.90;;;;;;5052643;28;20204;-56
2022/04/26 13:48:11;;;;;;;23.73;17.50;;;12.70;99.90;;;;;;5052780;28;20206;-57
2022/04/26 13:50:38;;;;;;;24.20;18.50;;;12.70;1.00;;;;;;5052481;28;20305;-59
2022/04/26 13:53:05;;;;;;;25.90;18.53;;;12.50;99.90;;;;;;5052725;28;20201;-57
2022/04/26 13:55:32;;;;;;;16.73;11.87;;;12.50;33.30;;;;;;5052585;28;20284;-55
2022/04/26 13:58:00;;;;;;;25.93;18.00;;;12.30;1.00;;;;;;5052623;28;20215;-62
2022/04/26 14:00:30;;;;;;;28.77;20.70;;;12.30;16.90;;;;;;5053112;28;20606;-59
2022/04/26 14:02:57;;;;;;;28.90;19.57;;;12.10;92.60;;;;;;5051752;28;20206;-57
2022/04/26 14:05:25;;;;;;;25.83;19.90;;;11.90;99.90;;;;;;5053134;28;20209;-61
2022/04/26 14:07:52;;;;;;;27.40;19.43;;;11.80;99.90;;;;;;5052401;28;20205;-58
2022/04/26 14:10:19;;;;;;;25.30;20.27;;;11.90;99.90;;;;;;5052671;28;20299;-59
2022/04/26 14:12:45;;;;;;;26.83;19.53;;;11.90;99.90;;;;;;5052034;28;20215;-61
2022/04/26 14:23:56;;;;;;;29.13;20.07;;;12.10;99.90;;;;;;4913408;29;20209;-65
2022/04/26 14:26:22;;;;;;;25.10;19.43;;;12.00;99.90;;;;;;5007893;28;20209;-63
2022/04/26 14:28:49;;;;;;;29.23;21.27;;;12.00;99.90;;;;;;5052405;28;20226;-64
2022/04/26 14:31:17;;;;;;;29.87;21.60;;;12.30;99.90;;;;;;5052285;28;20768;-63
2022/04/26 14:33:44;;;;;;;26.20;20.33;;;12.50;99.90;;;;;;5051856;28;20276;-62
2022/04/26 14:36:11;;;;;;;26.47;20.60;;;12.60;99.90;;;;;;5051789;28;20223;-62
2022/04/26 14:38:38;;;;;;;29.83;20.83;;;12.70;99.90;;;;;;5051777;28;20229;-62
2022/04/26 14:41:04;;;;;;;29.93;21.87;;;12.80;99.90;;;;;;5052114;28;20568;-62
2022/04/26 14:43:31;;;;;;;27.43;21.10;;;12.80;99.90;;;;;;5051674;28;20223;-62
2022/04/26 14:45:58;;;;;;;30.10;20.40;;;12.80;99.90;;;;;;5051745;28;20260;-61
2022/04/26 14:48:29;;;;;;;23.83;20.17;;;12.90;80.30;;;;;;5051883;28;20554;-62
2022/04/26 14:50:56;;;;;;;26.67;21.57;;;13.00;65.30;;;;;;5051797;28;20207;-64
2022/04/26 14:53:23;;;;;;;25.80;20.30;;;13.10;49.60;;;;;;5051570;28;20214;-61
2022/04/26 14:55:50;;;;;;;26.33;19.90;;;13.10;38.50;;;;;;5051844;28;20222;-62
2022/04/26 14:58:18;;;;;;;29.20;21.50;;;13.20;57.00;;;;;;5051481;28;20213;-56
2022/04/26 15:00:44;;;;;;;28.00;21.00;;;13.20;38.90;;;;;;5051590;28;20229;-65
2022/04/26 15:03:11;;;;;;;29.37;21.73;;;13.20;19.00;;;;;;5051395;28;20210;-59
2022/04/26 15:05:39;;;;;;;30.00;23.20;;;13.20;23.00;;;;;;5051278;28;20645;-57
2022/04/26 15:10:50;;;;;;;29.43;23.07;;;13.20;19.80;;;;;;5052163;28;20204;-64
2022/04/26 15:18:45;;;;;;;32.37;23.00;;;13.30;94.80;;;;;;5051890;28;20293;-61
2022/04/26 15:21:13;;;;;;;28.57;20.83;;;13.20;69.40;;;;;;5051987;28;20206;-58
2022/04/26 15:23:40;;;;;;;29.07;20.53;;;13.20;35.50;;;;;;5051883;28;20626;-59
2022/04/26 15:26:08;;;;;;;28.33;20.50;;;13.20;1.00;;;;;;5051597;28;20235;-60
2022/04/26 15:28:34;;;;;;;29.00;21.40;;;13.20;1.00;;;;;;5051672;28;20225;-61
2022/04/26 15:31:02;;;;;;;31.20;20.80;;;13.00;1.00;;;;;;5052064;28;20284;-60
2022/04/26 15:33:29;;;;;;;25.90;20.47;;;13.00;6.80;;;;;;5052174;28;20206;-60
2022/04/26 15:35:56;;;;;;;16.07;12.83;;;12.80;28.00;;;;;;5052998;28;20222;-61
2022/04/26 15:38:27;;;;;;;13.43;10.13;;;12.50;1.00;;;;;;5053287;28;20239;-61
2022/04/26 15:40:54;;;;;;;11.47;10.00;;;12.20;1.00;;;;;;5052533;28;20274;-61
2022/04/26 15:43:21;;;;;;;10.67;8.90;;;12.20;1.00;;;;;;5051908;28;20348;-61
2022/04/26 15:45:48;;;;;;;10.40;8.87;;;12.10;99.90;;;;;;5051669;28;20284;-61
2022/04/26 15:48:15;;;;;;;10.50;8.10;;;12.10;99.90;;;;;;5051467;28;20259;-61
2022/04/26 15:50:41;;;;;;;9.63;7.80;;;12.10;1.00;;;;;;5051840;28;20264;-62
2022/04/26 15:53:08;;;;;;;9.27;8.00;;;11.90;1.00;;;;;;5051588;28;20206;-61
2022/04/26 15:55:37;;;;;;;11.50;8.27;;;11.70;1.00;;;;;;5051547;28;20218;-60
2022/04/26 15:58:03;;;;;;;10.83;8.47;;;11.60;1.00;;;;;;5051314;28;20225;-61
2022/04/26 16:00:31;;;;;;;11.67;8.87;;;11.40;1.00;;;;;;5051780;28;20223;-60
2022/04/26 16:02:57;;;;;;;10.37;8.43;;;11.40;1.00;;;;;;5051594;28;20255;-58
2022/04/26 16:05:24;;;;;;;11.23;8.93;;;11.40;1.00;;;;;;5051810;28;20621;-59
2022/04/26 16:07:51;;;;;;;15.03;9.17;;;11.40;41.50;;;;;;5036468;28;20211;-61
2022/04/26 16:21:16;;;;;;;12.20;9.67;;;11.50;99.90;;;;;;5034352;28;20209;-59
2022/04/26 16:23:43;;;;;;;13.17;9.77;;;11.50;99.90;;;;;;5034991;28;20210;-62
2022/04/26 16:26:11;;;;;;;12.93;10.53;;;11.50;99.90;;;;;;5034508;28;20298;-61
2022/04/26 16:28:39;;;;;;;13.53;10.37;;;11.50;99.90;;;;;;5034731;28;20222;-59
2022/04/26 16:31:07;;;;;;;12.10;9.43;;;11.40;99.90;;;;;;5034677;28;20214;-62
2022/04/26 16:33:33;;;;;;;13.03;10.43;;;11.40;99.90;;;;;;5034736;28;20297;-61
2022/04/26 16:36:00;;;;;;;13.50;10.50;;;11.40;99.90;;;;;;5034458;28;20272;-63
2022/04/26 16:38:27;;;;;;;12.83;10.13;;;11.50;99.90;;;;;;5034860;28;20601;-66
2022/04/26 16:40:55;;;;;;;12.60;10.53;;;11.60;99.90;;;;;;5017835;28;20211;-65
2022/04/26 16:43:21;;;;;;;13.97;9.93;;;11.80;1.00;;;;;;5018515;28;20210;-65
2022/04/26 16:45:50;;;;;;;12.27;9.03;;;12.00;99.90;;;;;;5034007;28;20211;-65
2022/04/26 16:48:17;;;;;;;12.83;9.73;;;12.20;99.90;;;;;;5034399;28;20214;-64
2022/04/26 16:50:44;;;;;;;15.00;10.53;;;12.40;99.90;;;;;;5033498;28;20226;-64
2022/04/26 16:53:11;;;;;;;14.07;10.13;;;12.70;99.90;;;;;;5034334;28;20200;-66
2022/04/26 16:55:37;;;;;;;11.93;9.30;;;12.90;1.00;;;;;;5034151;28;20670;-66
2022/04/26 16:58:04;;;;;;;13.50;10.10;;;13.00;99.90;;;;;;5033429;28;20210;-66